Greenwald, Minnesota
Current Conditions -  °F | °C
As of 3:33 AM on Friday 24 Oct 2014 (Local Time) from KD39 Reporting Station
Clear Clear  
Wind Chill: 45°   Ceiling: Unl
Heat Index: 47°   Visibility: 10mi
Dew Point: 42°   Wind: 5mph
Humidity: 83%   Direction: 150°SSE
Pressure: 29.88"   Gusts: NA
Location:  45.6°N, 94.86°W
Report Text: KD39 240833Z AUTO 15004KT 10SM CLR 08/06 A2988 RMK AO2 T00830055
Loading
Personal Weather Stations






























Interactive Weather Map
Tropical Storm Tracking
New forecast layout! Learn more

10-Day Weather Forecast

Advertisements
Track Severe Weather on mobile